createdAt,value
2023-05-22T00:12:08.438Z,12.91
2023-05-22T00:14:48.551Z,13.01
2023-05-22T00:17:21.494Z,12.90
2023-05-22T00:22:49.632Z,12.88
2023-05-22T00:28:06.685Z,12.86
2023-05-22T00:30:33.951Z,12.86
2023-05-22T00:35:42.857Z,12.88
2023-05-22T00:38:10.272Z,12.85
2023-05-22T00:40:38.558Z,12.88
2023-05-22T00:43:09.280Z,12.78
2023-05-22T00:45:40.334Z,12.76
2023-05-22T00:48:10.884Z,12.88
2023-05-22T00:50:39.135Z,12.89
2023-05-22T00:53:07.547Z,12.87
2023-05-22T00:55:35.145Z,12.82
2023-05-22T00:58:08.427Z,12.82
2023-05-22T01:00:39.265Z,12.79
2023-05-22T01:03:10.537Z,12.85
2023-05-22T01:05:41.124Z,12.71
2023-05-22T01:08:10.229Z,12.58
2023-05-22T01:10:39.158Z,12.56
2023-05-22T01:13:28.040Z,12.49
2023-05-22T01:16:04.484Z,12.57
2023-05-22T01:19:03.156Z,12.56
2023-05-22T01:21:46.944Z,12.46
2023-05-22T01:25:13.262Z,12.45
2023-05-22T01:27:58.955Z,12.50
2023-05-22T01:30:35.398Z,12.48
2023-05-22T01:33:04.125Z,12.34
2023-05-22T01:35:32.020Z,12.38
2023-05-22T01:38:02.503Z,12.46
2023-05-22T01:40:30.221Z,12.43
2023-05-22T01:42:57.873Z,12.36
2023-05-22T01:45:25.161Z,12.36
2023-05-22T01:47:52.525Z,12.34
2023-05-22T01:50:20.600Z,12.27
2023-05-22T01:53:09.717Z,12.17
2023-05-22T01:55:56.101Z,12.29
2023-05-22T01:58:43.504Z,12.21
2023-05-22T02:01:14.553Z,12.11
2023-05-22T02:03:43.266Z,12.13
2023-05-22T02:06:15.880Z,12.03
2023-05-22T02:08:43.537Z,12.01
2023-05-22T02:11:11.994Z,12.05
2023-05-22T02:13:39.374Z,12.12
2023-05-22T02:16:07.517Z,12.12
2023-05-22T02:18:36.289Z,12.11
2023-05-22T02:21:03.699Z,12.08
2023-05-22T02:23:31.365Z,12.12
2023-05-22T02:25:58.394Z,12.08
2023-05-22T02:28:25.655Z,11.96
2023-05-22T02:30:53.469Z,12.05
2023-05-22T02:33:21.026Z,11.97
2023-05-22T02:35:48.321Z,12.05
2023-05-22T02:38:18.961Z,11.99
2023-05-22T02:40:47.719Z,12.03
2023-05-22T02:43:17.720Z,11.96
2023-05-22T02:45:44.853Z,11.81
2023-05-22T02:48:12.212Z,11.77
2023-05-22T02:50:42.498Z,11.90
2023-05-22T02:53:10.034Z,11.77
2023-05-22T02:55:37.448Z,11.78
2023-05-22T02:58:04.988Z,11.82
2023-05-22T03:00:32.520Z,11.74
2023-05-22T03:03:00.081Z,11.73
2023-05-22T03:05:27.204Z,11.75
2023-05-22T03:07:54.688Z,11.68
2023-05-22T03:10:22.660Z,11.65
2023-05-22T03:12:52.249Z,11.64
2023-05-22T03:15:19.867Z,11.58
2023-05-22T03:17:46.951Z,11.55
2023-05-22T03:20:17.278Z,11.63
2023-05-22T03:22:45.161Z,11.65
2023-05-22T03:27:54.406Z,11.49
2023-05-22T03:30:21.922Z,11.50
2023-05-22T03:32:49.312Z,11.52
2023-05-22T03:35:20.046Z,11.49
2023-05-22T03:37:47.471Z,11.56
2023-05-22T03:40:17.875Z,11.50
2023-05-22T03:42:44.984Z,11.34
2023-05-22T03:45:13.137Z,11.14
2023-05-22T03:47:40.294Z,11.05
2023-05-22T03:50:08.568Z,11.12
2023-05-22T03:52:36.903Z,11.29
2023-05-22T03:55:04.427Z,11.24
2023-05-22T03:57:32.087Z,11.45
2023-05-22T04:00:06.627Z,11.50
2023-05-22T04:02:40.396Z,11.60
2023-05-22T04:05:09.197Z,11.69
2023-05-22T04:07:36.777Z,11.88
2023-05-22T04:10:05.355Z,11.98
2023-05-22T04:12:33.377Z,12.09
2023-05-22T04:15:03.347Z,12.20
2023-05-22T04:17:36.727Z,12.05
2023-05-22T04:20:05.426Z,11.99
2023-05-22T04:22:34.128Z,11.95
2023-05-22T04:25:01.332Z,12.00
2023-05-22T04:27:32.560Z,12.07
2023-05-22T04:30:00.437Z,12.30
2023-05-22T04:32:28.386Z,12.33
2023-05-22T04:34:59.259Z,12.42
2023-05-22T04:37:29.231Z,12.60
2023-05-22T04:40:05.723Z,12.51
2023-05-22T04:42:35.049Z,12.72
2023-05-22T04:45:02.285Z,12.75
2023-05-22T04:47:33.899Z,12.86
2023-05-22T04:50:05.005Z,12.92
2023-05-22T04:52:34.576Z,13.00
2023-05-22T04:55:03.306Z,13.04
2023-05-22T04:57:34.046Z,13.16
2023-05-22T05:00:05.096Z,13.19
2023-05-22T05:02:35.038Z,13.24
2023-05-22T05:05:05.704Z,13.10
2023-05-22T05:07:33.853Z,13.16
2023-05-22T05:10:01.606Z,12.93
2023-05-22T05:12:28.923Z,12.96
2023-05-22T05:14:57.310Z,13.03
2023-05-22T05:17:34.411Z,13.06
2023-05-22T05:22:45.860Z,13.13
2023-05-22T05:27:55.757Z,13.28
2023-05-22T05:30:25.168Z,13.36
2023-05-22T05:33:01.488Z,13.41
2023-05-22T05:35:28.998Z,13.51
2023-05-22T05:40:45.527Z,13.72
2023-05-22T05:45:58.770Z,13.88
2023-05-22T05:48:27.162Z,14.00
2023-05-22T05:50:59.644Z,14.11
2023-05-22T05:56:23.885Z,14.31
2023-05-22T06:01:41.622Z,14.57
2023-05-22T06:09:37.819Z,14.89
2023-05-22T06:14:50.748Z,15.20
2023-05-22T06:20:07.011Z,15.45
2023-05-22T06:30:47.439Z,16.38
2023-05-22T06:33:22.637Z,16.74
2023-05-22T06:44:09.706Z,17.31
2023-05-22T06:49:10.914Z,17.52
2023-05-22T06:51:38.009Z,17.52
2023-05-22T06:57:04.056Z,17.70
2023-05-22T07:05:01.275Z,17.74
2023-05-22T07:10:11.413Z,17.82
2023-05-22T07:12:40.189Z,17.90
2023-05-22T07:15:14.876Z,18.00
2023-05-22T07:20:32.412Z,18.08
2023-05-22T07:31:16.105Z,18.79
2023-05-22T07:39:07.053Z,19.84
2023-05-22T07:52:25.240Z,21.70
2023-05-22T08:30:25.797Z,23.19
2023-05-22T09:10:50.753Z,24.43
2023-05-22T09:37:43.459Z,26.36
2023-05-22T11:10:54.316Z,31.84
2023-05-22T13:33:20.245Z,25.59
2023-05-22T13:41:12.649Z,23.09
2023-05-22T13:49:09.112Z,21.57
2023-05-22T13:51:36.555Z,21.13
2023-05-22T13:59:25.956Z,20.83
2023-05-22T14:01:53.767Z,20.38
2023-05-22T14:04:21.400Z,20.42
2023-05-22T14:06:51.002Z,20.19
2023-05-22T14:09:18.260Z,20.21
2023-05-22T14:11:45.527Z,20.29
2023-05-22T14:14:12.404Z,20.38
2023-05-22T14:16:39.720Z,20.51
2023-05-22T14:24:37.353Z,21.22
2023-05-22T14:27:04.355Z,21.29
2023-05-22T14:37:58.118Z,20.77
2023-05-22T14:40:25.163Z,21.01
2023-05-22T14:42:54.406Z,20.55
2023-05-22T14:48:03.119Z,20.19
2023-05-22T14:50:31.694Z,20.31
2023-05-22T15:01:03.212Z,20.58
2023-05-22T15:03:33.262Z,20.66
2023-05-22T15:14:00.573Z,20.59
2023-05-22T15:21:51.184Z,21.01
2023-05-22T15:27:05.071Z,21.90
2023-05-22T15:29:32.235Z,22.25
2023-05-22T15:34:50.621Z,22.99
2023-05-22T15:37:17.450Z,23.82
2023-05-22T16:18:34.383Z,22.36
2023-05-22T16:21:01.393Z,22.43
2023-05-22T16:23:28.497Z,22.29
2023-05-22T16:31:24.714Z,22.06
2023-05-22T16:33:53.309Z,22.10
2023-05-22T16:36:20.485Z,21.99
2023-05-22T16:38:49.700Z,21.79
2023-05-22T16:44:05.811Z,21.67
2023-05-22T16:49:15.567Z,21.74
2023-05-22T16:54:24.499Z,21.80
2023-05-22T16:59:33.980Z,21.78
2023-05-22T17:02:02.042Z,21.71
2023-05-22T17:04:32.465Z,21.70
2023-05-22T17:06:59.776Z,21.72
2023-05-22T17:09:30.049Z,21.69
2023-05-22T17:11:57.632Z,21.77
2023-05-22T17:14:26.569Z,21.59
2023-05-22T17:16:55.858Z,21.27
2023-05-22T17:19:24.130Z,20.89
2023-05-22T17:21:52.006Z,20.71
2023-05-22T17:26:55.567Z,20.33
2023-05-22T17:32:07.414Z,19.94
2023-05-22T17:48:46.188Z,19.09
2023-05-22T18:26:23.656Z,18.77
2023-05-22T18:52:44.435Z,17.25
2023-05-22T18:58:30.724Z,16.94
2023-05-22T19:01:01.879Z,16.85
2023-05-22T19:03:29.107Z,16.72
2023-05-22T19:08:38.376Z,16.50
2023-05-22T19:13:55.053Z,16.31
2023-05-22T19:16:46.945Z,16.29
2023-05-22T19:19:17.353Z,16.14
2023-05-22T19:27:39.102Z,15.82
2023-05-22T20:03:44.245Z,15.30
2023-05-22T20:15:10.499Z,15.01
2023-05-22T20:58:40.367Z,14.96
2023-05-22T21:23:45.841Z,15.04
2023-05-22T21:26:13.316Z,15.17
2023-05-22T21:52:54.200Z,14.43
2023-05-22T22:24:36.146Z,13.75
2023-05-22T22:30:02.500Z,13.71
2023-05-22T22:35:39.113Z,13.41
2023-05-22T22:40:56.968Z,13.40
2023-05-22T22:52:13.330Z,13.17
2023-05-22T23:14:23.041Z,12.79
2023-05-22T23:22:03.921Z,12.79
2023-05-22T23:33:13.130Z,12.54
2023-05-22T23:41:27.740Z,12.50
2023-05-22T23:43:54.559Z,12.35
2023-05-22T23:52:07.006Z,12.30
2023-05-22T23:54:36.759Z,12.46
